Time;durP1;ratioP1;P1;durP2;ratioP2;P2;SDS_P1;SDS_P2;PMS_P1;PMS_P2;Temp;Humidity;BMP_temperature;BMP_pressure;BME280_temperature;BME280_humidity;BME280_pressure;Samples;Min_cycle;Max_cycle;Signal;HPM_P1;HPM_P2
2022/10/24 00:01:30;;;;;;;10.30;5.47;;;;;;;14.08;100.00;100429.78;6195591;23;20004;-74
2022/10/24 00:03:57;;;;;;;13.07;5.80;;;;;;;14.19;100.00;100453.78;6192474;23;20084;-74
2022/10/24 00:06:23;;;;;;;14.63;5.40;;;;;;;14.18;100.00;100435.78;6195461;23;20009;-74
2022/10/24 00:08:49;;;;;;;17.23;7.03;;;;;;;14.15;100.00;100436.19;6194717;23;20055;-75
2022/10/24 00:11:26;;;;;;;14.30;5.82;;;;;;;14.11;100.00;100434.88;6194821;23;20428;-74
2022/10/24 00:13:53;;;;;;;9.45;5.47;;;;;;;14.08;100.00;100440.69;6194075;23;20357;-74
2022/10/24 00:16:19;;;;;;;16.70;6.60;;;;;;;14.09;100.00;100442.38;6194359;23;20005;-74
2022/10/24 00:18:45;;;;;;;12.30;5.25;;;;;;;14.10;100.00;100434.03;6196006;23;20011;-74
2022/10/24 00:21:10;;;;;;;33.85;6.38;;;;;;;14.02;100.00;100425.13;6194060;23;20029;-74
2022/10/24 00:23:36;;;;;;;13.85;5.30;;;;;;;14.12;100.00;100431.09;6194455;23;20005;-74
2022/10/24 00:26:05;;;;;;;14.43;5.22;;;;;;;14.11;100.00;100423.97;6196241;23;20036;-74
2022/10/24 00:28:32;;;;;;;28.30;5.63;;;;;;;14.11;100.00;100434.88;6195659;23;20071;-74
2022/10/24 00:30:58;;;;;;;20.38;5.40;;;;;;;14.12;100.00;100436.53;6196837;23;20008;-74
2022/10/24 00:33:24;;;;;;;18.45;5.28;;;;;;;14.11;100.00;100435.69;6194525;23;19997;-74
2022/10/24 00:35:49;;;;;;;12.25;5.03;;;;;;;14.08;100.00;100435.22;6195251;23;20038;-74
2022/10/24 00:38:15;;;;;;;13.10;5.15;;;;;;;14.05;100.00;100441.06;6194915;23;20005;-75
2022/10/24 00:40:41;;;;;;;11.85;4.50;;;;;;;14.01;100.00;100439.75;6194084;23;20007;-75
2022/10/24 00:43:18;;;;;;;8.57;4.80;;;;;;;14.08;100.00;100424.34;6195097;23;20005;-75
2022/10/24 00:45:49;;;;;;;16.05;5.60;;;;;;;14.10;100.00;100425.00;6194289;23;20000;-74
2022/10/24 00:48:21;;;;;;;10.52;4.68;;;;;;;14.01;100.00;100427.00;6193699;23;19997;-74
2022/10/24 00:50:50;;;;;;;11.82;5.90;;;;;;;14.09;100.00;100417.88;6193171;23;20029;-74
2022/10/24 00:53:16;;;;;;;12.07;4.72;;;;;;;14.01;100.00;100417.97;6193762;23;19996;-74
2022/10/24 00:55:46;;;;;;;11.68;5.05;;;;;;;13.94;100.00;100428.78;6195816;23;20005;-74
2022/10/24 00:58:13;;;;;;;7.68;4.38;;;;;;;13.98;100.00;100413.78;6195605;23;20424;-74
2022/10/24 01:00:38;;;;;;;13.85;4.65;;;;;;;13.95;100.00;100418.75;6193731;23;19997;-75
2022/10/24 01:03:03;;;;;;;10.05;4.93;;;;;;;13.97;100.00;100411.25;6193933;23;20001;-74
2022/10/24 01:05:45;;;;;;;11.73;5.20;;;;;;;13.98;100.00;100411.06;6193938;23;20001;-75
2022/10/24 01:08:41;;;;;;;13.55;4.47;;;;;;;14.05;100.00;100413.84;6194154;23;20049;-74
2022/10/24 01:11:25;;;;;;;15.27;4.68;;;;;;;13.95;100.00;100408.69;6193942;23;20023;-74
2022/10/24 01:14:06;;;;;;;14.52;4.90;;;;;;;14.02;100.00;100400.66;6194714;23;20001;-75
2022/10/24 01:16:45;;;;;;;8.23;4.57;;;;;;;14.01;100.00;100396.22;6194262;23;20005;-74
2022/10/24 01:19:46;;;;;;;12.57;4.40;;;;;;;13.93;100.00;100393.59;6195940;23;20004;-74
2022/10/24 01:22:40;;;;;;;16.02;5.47;;;;;;;13.97;100.00;100395.75;6139685;23;20340;-74
2022/10/24 01:25:41;;;;;;;12.40;4.95;;;;;;;13.96;100.00;100398.69;6139787;23;20033;-74
2022/10/24 01:28:29;;;;;;;9.85;4.25;;;;;;;13.91;100.00;100396.53;6139345;23;19998;-74
2022/10/24 01:31:10;;;;;;;20.65;5.78;;;;;;;13.87;100.00;100395.22;6139256;23;20028;-74
2022/10/24 01:33:42;;;;;;;12.52;5.10;;;;;;;13.91;100.00;100395.69;6165799;23;20056;-75
2022/10/24 01:36:12;;;;;;;18.08;4.75;;;;;;;13.87;100.00;100402.53;6165225;23;20076;-74
2022/10/24 01:38:41;;;;;;;8.82;4.25;;;;;;;13.88;100.00;100401.50;6138756;23;20009;-74
2022/10/24 01:41:11;;;;;;;8.75;3.45;;;;;;;13.89;100.00;100400.47;6139336;23;19998;-75
2022/10/24 01:43:50;;;;;;;10.00;4.00;;;;;;;13.87;100.00;100399.81;6138983;23;20013;-75
2022/10/24 01:46:23;;;;;;;7.97;3.95;;;;;;;13.93;100.00;100399.06;6140448;23;20001;-75
2022/10/24 01:48:57;;;;;;;8.60;4.60;;;;;;;13.93;100.00;100393.59;6140471;23;20084;-75
2022/10/24 01:51:25;;;;;;;9.65;4.15;;;;;;;13.87;100.00;100394.38;6166198;23;20093;-74
2022/10/24 01:53:52;;;;;;;14.57;4.50;;;;;;;13.88;100.00;100387.88;6165976;23;20001;-74
2022/10/24 01:56:17;;;;;;;16.27;4.72;;;;;;;13.78;100.00;100385.50;6139434;23;19997;-75
2022/10/24 01:58:44;;;;;;;8.90;3.85;;;;;;;13.74;100.00;100393.19;6162917;23;20085;-74
2022/10/24 02:01:15;;;;;;;10.32;4.10;;;;;;;13.73;100.00;100382.50;6163624;23;20029;-74
2022/10/24 02:03:48;;;;;;;12.55;4.05;;;;;;;13.66;100.00;100387.84;6139434;23;20002;-74
2022/10/24 02:06:27;;;;;;;10.45;4.45;;;;;;;13.69;100.00;100376.59;6139142;23;20348;-74
2022/10/24 02:08:57;;;;;;;15.35;4.50;;;;;;;13.61;100.00;100375.84;6163753;23;20011;-74
2022/10/24 02:11:23;;;;;;;9.05;4.75;;;;;;;13.68;100.00;100391.22;6138827;23;20024;-75
2022/10/24 02:14:32;;;;;;;14.25;4.47;;;;;;;13.68;100.00;100380.34;6128919;23;20017;-75
2022/10/24 02:16:59;;;;;;;12.23;4.65;;;;;;;13.66;100.00;100382.41;6123409;23;20005;-77
2022/10/24 02:19:25;;;;;;;7.90;4.20;;;;;;;13.69;100.00;100373.00;6160628;23;20064;-75
2022/10/24 02:22:15;;;;;;;19.48;4.85;;;;;;;13.70;100.00;100372.84;6134202;23;19997;-75
2022/10/24 02:24:47;;;;;;;14.45;4.38;;;;;;;13.75;100.00;100369.53;6134476;23;20016;-75
2022/10/24 02:27:38;;;;;;;15.30;4.47;;;;;;;13.63;100.00;100371.94;6160062;23;19997;-75
2022/10/24 02:30:09;;;;;;;12.20;4.88;;;;;;;13.78;100.00;100359.13;6161259;23;20029;-75
2022/10/24 02:32:41;;;;;;;10.07;4.70;;;;;;;13.68;100.00;100364.00;6161525;23;20009;-75
2022/10/24 02:35:10;;;;;;;17.02;4.68;;;;;;;13.55;100.00;100359.25;6135811;23;20005;-75
2022/10/24 02:37:41;;;;;;;10.00;4.20;;;;;;;13.63;100.00;100355.59;6135152;23;20005;-76
2022/10/24 02:40:08;;;;;;;11.15;4.22;;;;;;;13.67;100.00;100351.44;6134878;23;20005;-76
2022/10/24 02:42:34;;;;;;;11.77;4.40;;;;;;;13.63;100.00;100344.72;6135424;23;20001;-76
2022/10/24 02:45:01;;;;;;;14.80;5.05;;;;;;;13.62;100.00;100340.28;6134578;23;20039;-76
2022/10/24 02:47:28;;;;;;;12.75;4.65;;;;;;;13.60;100.00;100334.22;6135776;23;20013;-76
2022/10/24 02:49:53;;;;;;;12.00;4.75;;;;;;;13.55;100.00;100339.38;6135257;23;20008;-76
2022/10/24 02:52:20;;;;;;;18.27;5.10;;;;;;;13.65;100.00;100331.75;6134870;23;20009;-76
2022/10/24 02:54:45;;;;;;;10.68;5.15;;;;;;;13.53;100.00;100334.13;6135825;23;20008;-76
2022/10/24 02:57:12;;;;;;;17.35;4.85;;;;;;;13.54;100.00;100334.97;6160942;23;20013;-76
2022/10/24 02:59:37;;;;;;;12.63;4.60;;;;;;;13.39;100.00;100331.44;6135092;23;20076;-76
2022/10/24 03:02:03;;;;;;;25.00;4.93;;;;;;;13.49;100.00;100334.69;6135174;23;20037;-76
2022/10/24 03:04:28;;;;;;;17.08;4.50;;;;;;;13.41;100.00;100334.81;6135691;23;20037;-76
2022/10/24 03:06:54;;;;;;;11.40;4.35;;;;;;;13.37;100.00;100328.09;6134905;23;20017;-76
2022/10/24 03:09:19;;;;;;;10.45;4.72;;;;;;;13.36;100.00;100323.66;6161437;23;19998;-76
2022/10/24 03:11:44;;;;;;;22.58;5.57;;;;;;;13.29;100.00;100327.13;6134754;23;19997;-76
2022/10/24 03:14:10;;;;;;;23.60;6.35;;;;;;;13.20;100.00;100322.84;6134662;23;20027;-76
2022/10/24 03:16:35;;;;;;;10.85;4.95;;;;;;;13.30;100.00;100328.84;6162046;23;20001;-75
2022/10/24 03:19:00;;;;;;;12.40;5.05;;;;;;;13.15;100.00;100324.38;6136165;23;20006;-75
2022/10/24 03:21:26;;;;;;;14.77;5.03;;;;;;;13.17;100.00;100309.59;6135777;23;20016;-75
2022/10/24 03:23:51;;;;;;;17.88;5.10;;;;;;;13.27;100.00;100312.88;6136629;23;19997;-76
2022/10/24 03:26:17;;;;;;;11.07;5.28;;;;;;;13.14;100.00;100304.53;6135766;23;20041;-75
2022/10/24 03:28:42;;;;;;;13.77;5.18;;;;;;;13.19;100.00;100303.97;6135860;23;20483;-75
2022/10/24 03:31:07;;;;;;;15.00;5.65;;;;;;;13.27;100.00;100307.44;6135914;23;20093;-75
2022/10/24 03:33:33;;;;;;;16.00;4.80;;;;;;;13.27;100.00;100302.00;6136716;23;20092;-75
2022/10/24 03:35:59;;;;;;;17.02;5.10;;;;;;;13.16;100.00;100299.72;6135675;23;20096;-75
2022/10/24 03:38:25;;;;;;;10.75;5.25;;;;;;;13.16;100.00;100305.16;6135909;23;20060;-75
2022/10/24 03:40:50;;;;;;;13.20;4.85;;;;;;;13.09;100.00;100306.97;6136229;23;20052;-75
2022/10/24 03:43:16;;;;;;;18.15;5.63;;;;;;;13.16;100.00;100305.16;6136189;23;20013;-76
2022/10/24 03:45:42;;;;;;;15.07;5.50;;;;;;;13.16;100.00;100310.59;6135738;23;20005;-76
2022/10/24 03:48:08;;;;;;;8.05;5.20;;;;;;;13.01;100.00;100307.91;6135258;23;20558;-76
2022/10/24 03:50:34;;;;;;;13.60;6.32;;;;;;;13.02;100.00;100315.03;6135221;23;20005;-75
2022/10/24 03:53:00;;;;;;;13.68;6.03;;;;;;;12.94;100.00;100317.00;6136526;23;20001;-76
2022/10/24 03:55:27;;;;;;;14.02;6.20;;;;;;;12.95;100.00;100307.81;6136189;23;20515;-76
2022/10/24 03:57:52;;;;;;;19.35;6.72;;;;;;;12.95;100.00;100319.53;6135846;23;19998;-76
2022/10/24 04:00:18;;;;;;;16.45;5.82;;;;;;;12.83;100.00;100306.59;6135658;23;20111;-76
2022/10/24 04:02:44;;;;;;;20.98;5.65;;;;;;;12.88;100.00;100306.88;6136550;23;20001;-75
2022/10/24 04:05:10;;;;;;;14.77;6.30;;;;;;;12.93;100.00;100299.03;6135264;23;20032;-76
2022/10/24 04:07:36;;;;;;;20.35;6.10;;;;;;;12.95;100.00;100291.50;6136073;23;20014;-75
2022/10/24 04:10:01;;;;;;;15.43;6.40;;;;;;;12.99;100.00;100292.84;6135311;23;20013;-76
2022/10/24 04:12:27;;;;;;;14.63;6.72;;;;;;;12.97;100.00;100290.28;6161850;23;20018;-76
2022/10/24 04:14:52;;;;;;;15.55;5.32;;;;;;;13.01;100.00;100285.31;6161526;23;20010;-75
2022/10/24 04:17:18;;;;;;;19.65;6.57;;;;;;;13.01;100.00;100285.31;6136286;23;20031;-75
2022/10/24 04:19:43;;;;;;;20.77;5.78;;;;;;;13.02;100.00;100292.44;6135780;23;20002;-75
2022/10/24 04:22:08;;;;;;;13.68;5.90;;;;;;;13.00;100.00;100289.06;6136331;23;20005;-76
2022/10/24 04:24:34;;;;;;;11.68;6.35;;;;;;;12.90;100.00;100283.06;6136209;23;19998;-75
2022/10/24 04:26:59;;;;;;;19.42;5.68;;;;;;;13.06;100.00;100276.63;6135285;23;20414;-76
2022/10/24 04:29:25;;;;;;;14.85;6.60;;;;;;;12.96;100.00;100274.16;6135737;23;20040;-76
2022/10/24 04:31:50;;;;;;;15.35;6.88;;;;;;;13.07;100.00;100273.69;6136339;23;20447;-76
2022/10/24 04:34:16;;;;;;;20.55;8.27;;;;;;;13.06;100.00;100277.44;6161791;23;20005;-76
2022/10/24 04:36:41;;;;;;;12.25;6.03;;;;;;;13.02;100.00;100276.13;6135685;23;20056;-76
2022/10/24 04:39:07;;;;;;;14.40;6.68;;;;;;;12.96;100.00;100283.16;6135634;23;20540;-75
2022/10/24 04:41:32;;;;;;;18.75;6.43;;;;;;;12.86;100.00;100287.22;6132751;23;20092;-75
2022/10/24 04:43:58;;;;;;;21.90;7.93;;;;;;;12.76;100.00;100282.88;6134800;23;20059;-76
2022/10/24 04:46:23;;;;;;;13.30;6.80;;;;;;;12.71;100.00;100285.34;6134824;23;20425;-76
2022/10/24 04:48:48;;;;;;;15.15;6.50;;;;;;;12.76;100.00;100288.31;6138914;23;20559;-76
2022/10/24 04:51:14;;;;;;;13.63;6.82;;;;;;;12.81;100.00;100284.22;6138887;23;20001;-76
2022/10/24 04:53:39;;;;;;;21.75;6.25;;;;;;;12.91;100.00;100282.91;6138171;23;20052;-76
2022/10/24 04:56:05;;;;;;;15.27;6.07;;;;;;;12.75;100.00;100281.19;6138451;23;20037;-76
2022/10/24 04:58:31;;;;;;;23.40;6.07;;;;;;;12.83;100.00;100284.84;6137993;23;20025;-77
2022/10/24 05:00:56;;;;;;;24.48;6.88;;;;;;;12.77;100.00;100294.59;6138396;23;19997;-77
2022/10/24 05:03:22;;;;;;;25.05;8.38;;;;;;;12.74;100.00;100290.38;6138207;23;20009;-77
2022/10/24 05:05:48;;;;;;;27.50;8.23;;;;;;;12.77;100.00;100290.00;6138040;23;20005;-77
2022/10/24 05:08:14;;;;;;;20.80;6.40;;;;;;;12.74;100.00;100294.97;6138345;23;20001;-76
2022/10/24 05:10:40;;;;;;;25.98;7.38;;;;;;;12.76;100.00;100288.31;6164598;23;20005;-77
2022/10/24 05:13:06;;;;;;;16.55;7.47;;;;;;;12.65;100.00;100288.81;6138259;23;20013;-76
2022/10/24 05:15:31;;;;;;;21.90;8.30;;;;;;;12.60;100.00;100288.50;6138819;23;20026;-76
2022/10/24 05:17:57;;;;;;;18.30;7.25;;;;;;;12.49;100.00;100280.81;6138218;23;20008;-76
2022/10/24 05:20:23;;;;;;;13.50;6.78;;;;;;;12.56;100.00;100275.47;6164155;23;19997;-77
2022/10/24 05:22:49;;;;;;;18.60;6.78;;;;;;;12.71;100.00;100284.47;6138789;23;20009;-76
2022/10/24 05:25:14;;;;;;;19.38;8.63;;;;;;;12.59;100.00;100275.13;6138412;23;20009;-77
2022/10/24 05:27:40;;;;;;;29.45;7.05;;;;;;;12.53;100.00;100276.72;6137633;23;20008;-77
2022/10/24 05:30:06;;;;;;;18.42;7.57;;;;;;;12.58;100.00;100279.69;6163774;23;20040;-77
2022/10/24 05:32:31;;;;;;;29.50;7.88;;;;;;;12.66;100.00;100282.34;6137695;23;20012;-77
2022/10/24 05:34:57;;;;;;;20.55;6.55;;;;;;;12.70;100.00;100275.47;6164191;23;20328;-77
2022/10/24 05:37:22;;;;;;;23.95;6.18;;;;;;;12.84;100.00;100272.94;6137903;23;20009;-78
2022/10/24 05:39:48;;;;;;;15.77;6.35;;;;;;;12.90;100.00;100280.34;6138028;23;20075;-78
2022/10/24 05:42:13;;;;;;;14.80;7.05;;;;;;;12.76;100.00;100272.03;6164594;23;20007;-77
2022/10/24 05:44:39;;;;;;;16.95;6.05;;;;;;;12.76;100.00;100280.16;6138265;23;20024;-77
2022/10/24 05:47:05;;;;;;;15.65;6.15;;;;;;;13.06;100.00;100285.59;6137148;23;20010;-77
2022/10/24 05:49:30;;;;;;;14.65;4.75;;;;;;;12.96;100.00;100283.16;6137628;23;20001;-77
2022/10/24 05:51:56;;;;;;;17.77;5.68;;;;;;;13.05;100.00;100275.78;6164283;23;20001;-77
2022/10/24 05:54:21;;;;;;;12.05;5.47;;;;;;;13.09;100.00;100279.78;6137464;23;20011;-77
2022/10/24 05:56:46;;;;;;;17.65;5.57;;;;;;;13.09;100.00;100293.38;6137451;23;20001;-77
2022/10/24 05:59:12;;;;;;;12.75;5.30;;;;;;;13.09;100.00;100289.81;6163727;23;20001;-77
2022/10/24 06:01:39;;;;;;;16.10;5.78;;;;;;;13.13;100.00;100289.25;6137641;23;20350;-77
2022/10/24 06:04:04;;;;;;;20.42;5.43;;;;;;;13.16;100.00;100283.44;6137713;23;20002;-77
2022/10/24 06:06:30;;;;;;;22.02;5.80;;;;;;;13.20;100.00;100279.34;6163541;23;20001;-77
2022/10/24 06:08:55;;;;;;;16.00;4.95;;;;;;;13.24;100.00;100280.66;6138192;23;20009;-77
2022/10/24 06:11:20;;;;;;;9.93;4.50;;;;;;;13.29;100.00;100283.63;6137022;23;20008;-77
2022/10/24 06:13:46;;;;;;;14.88;4.68;;;;;;;13.23;100.00;100284.38;6137715;23;20009;-77
2022/10/24 06:16:11;;;;;;;23.90;5.68;;;;;;;13.26;100.00;100284.00;6137150;23;20084;-77
2022/10/24 06:18:38;;;;;;;22.45;6.13;;;;;;;13.26;100.00;100283.19;6137564;23;20009;-77
2022/10/24 06:21:06;;;;;;;20.52;5.22;;;;;;;13.47;100.00;100275.06;6137383;23;19997;-77
2022/10/24 06:23:32;;;;;;;23.85;5.05;;;;;;;13.53;100.00;100278.88;6138399;23;20088;-77
2022/10/24 06:25:58;;;;;;;15.75;4.32;;;;;;;13.47;100.00;100263.34;6137408;23;20409;-77
2022/10/24 06:28:24;;;;;;;17.17;4.50;;;;;;;13.50;100.00;100279.28;6163701;23;20007;-77
2022/10/24 06:30:51;;;;;;;15.13;4.75;;;;;;;13.47;100.00;100280.50;6137354;23;20001;-74
2022/10/24 06:33:16;;;;;;;19.00;5.25;;;;;;;13.53;100.00;100273.44;6137609;23;20061;-71
2022/10/24 06:35:42;;;;;;;14.85;4.97;;;;;;;13.64;100.00;100270.25;6137740;23;20021;-74
2022/10/24 06:38:08;;;;;;;20.20;4.78;;;;;;;13.48;100.00;100265.84;6137551;23;20009;-74
2022/10/24 06:40:36;;;;;;;24.55;4.60;;;;;;;13.48;100.00;100265.03;6137405;23;19994;-73
2022/10/24 06:43:01;;;;;;;13.73;4.75;;;;;;;13.54;100.00;100275.13;6137762;23;20017;-73
2022/10/24 06:45:27;;;;;;;24.05;4.97;;;;;;;13.50;100.00;100263.81;6136589;23;20009;-74
2022/10/24 06:47:52;;;;;;;17.55;4.93;;;;;;;13.54;100.00;100270.53;6137028;23;20001;-74
2022/10/24 06:50:17;;;;;;;21.65;5.22;;;;;;;13.61;100.00;100270.59;6136572;23;20005;-71
2022/10/24 06:52:43;;;;;;;21.30;4.80;;;;;;;13.68;100.00;100271.50;6137943;23;20084;-75
2022/10/24 06:55:08;;;;;;;16.23;5.18;;;;;;;13.71;100.00;100282.03;6163475;23;20013;-73
2022/10/24 06:57:34;;;;;;;18.80;5.18;;;;;;;13.71;100.00;100283.91;6163628;23;20005;-74
2022/10/24 06:59:59;;;;;;;23.75;4.95;;;;;;;13.61;100.00;100286.94;6120926;23;20024;-69
2022/10/24 07:02:25;;;;;;;14.68;4.55;;;;;;;13.74;100.00;100292.50;6123954;23;20020;-72
2022/10/24 07:04:50;;;;;;;13.98;4.78;;;;;;;13.72;100.00;100289.16;6124970;23;20040;-74
2022/10/24 07:07:19;;;;;;;17.52;4.43;;;;;;;13.80;100.00;100297.19;6130022;23;20001;-73
2022/10/24 07:09:50;;;;;;;28.02;5.30;;;;;;;13.69;100.00;100288.69;6130527;23;20344;-73
2022/10/24 07:12:16;;;;;;;20.88;5.45;;;;;;;13.74;100.00;100297.94;6130963;23;20009;-73
2022/10/24 07:14:41;;;;;;;11.63;4.45;;;;;;;13.90;100.00;100307.75;6131255;23;20009;-69
2022/10/24 07:17:06;;;;;;;23.58;4.53;;;;;;;13.95;100.00;100299.00;6129010;23;20040;-73
2022/10/24 07:19:32;;;;;;;20.42;4.82;;;;;;;13.96;100.00;100317.03;6131262;23;20031;-72
2022/10/24 07:21:57;;;;;;;16.52;3.97;;;;;;;14.02;100.00;100302.66;6132716;23;20002;-73
2022/10/24 07:24:23;;;;;;;17.58;4.35;;;;;;;14.07;100.00;100311.06;6131058;23;20491;-73
2022/10/24 07:26:49;;;;;;;12.85;4.50;;;;;;;14.05;100.00;100310.41;6132333;23;20120;-71
2022/10/24 07:29:14;;;;;;;25.02;5.63;;;;;;;14.08;100.00;100310.00;6157522;23;20005;-72
2022/10/24 07:31:39;;;;;;;21.77;3.97;;;;;;;14.10;100.00;100324.28;6130684;23;20008;-75
2022/10/24 07:34:07;;;;;;;16.35;4.70;;;;;;;14.12;100.00;100322.22;6131664;23;20009;-73
2022/10/24 07:36:32;;;;;;;15.65;4.53;;;;;;;14.22;100.00;100321.91;6130463;23;20024;-74
2022/10/24 07:38:59;;;;;;;9.48;3.92;;;;;;;14.31;100.00;100327.00;6156824;23;20084;-70
2022/10/24 07:41:27;;;;;;;15.73;4.35;;;;;;;14.31;100.00;100316.09;6132113;23;20001;-74
2022/10/24 07:43:54;;;;;;;18.10;4.25;;;;;;;14.39;100.00;100321.41;6130962;23;20001;-73
2022/10/24 07:46:20;;;;;;;11.30;4.38;;;;;;;14.37;100.00;100326.22;6130468;23;20002;-70
2022/10/24 07:48:49;;;;;;;13.25;4.13;;;;;;;14.52;100.00;100328.03;6132145;23;20010;-74
2022/10/24 07:51:15;;;;;;;17.40;4.75;;;;;;;14.52;100.00;100333.47;6130573;23;20059;-72
2022/10/24 07:53:41;;;;;;;18.05;5.32;;;;;;;14.42;100.00;100343.84;6131747;23;20032;-69
2022/10/24 07:56:10;;;;;;;21.15;3.92;;;;;;;14.59;100.00;100337.09;6131904;23;20005;-69
2022/10/24 07:58:36;;;;;;;11.32;3.75;;;;;;;14.56;100.00;100340.22;6130711;23;20013;-73
2022/10/24 08:01:11;;;;;;;15.55;4.57;;;;;;;14.69;100.00;100343.06;6131947;23;20028;-70
2022/10/24 08:03:36;;;;;;;24.50;4.75;;;;;;;14.62;100.00;100328.53;6133795;23;20056;-72
2022/10/24 08:06:07;;;;;;;20.70;4.88;;;;;;;14.75;100.00;100344.16;6132260;23;20009;-73
2022/10/24 08:08:32;;;;;;;22.42;4.60;;;;;;;14.93;100.00;100337.16;6131879;23;20001;-74
2022/10/24 08:10:58;;;;;;;13.15;4.63;;;;;;;14.98;100.00;100338.41;6133580;23;20009;-73
2022/10/24 08:13:23;;;;;;;17.10;4.45;;;;;;;15.17;100.00;100332.25;6132417;23;20068;-71
2022/10/24 08:15:49;;;;;;;14.25;3.90;;;;;;;15.20;100.00;100327.25;6132537;23;20005;-69
2022/10/24 08:18:14;;;;;;;33.58;4.25;;;;;;;15.37;100.00;100333.19;6132398;23;20012;-73
2022/10/24 08:20:40;;;;;;;10.65;3.92;;;;;;;15.52;100.00;100329.47;6158124;23;20032;-72
2022/10/24 08:23:05;;;;;;;17.00;5.03;;;;;;;15.34;100.00;100328.16;6132340;23;20029;-73
2022/10/24 08:25:31;;;;;;;19.20;5.00;;;;;;;15.58;100.00;100328.66;6131842;23;20013;-72
2022/10/24 08:27:56;;;;;;;15.43;3.80;;;;;;;15.66;100.00;100325.78;6131336;23;20001;-70
2022/10/24 08:30:22;;;;;;;21.05;4.30;;;;;;;15.68;100.00;100329.16;6133454;23;20005;-73
2022/10/24 08:32:47;;;;;;;16.00;4.07;;;;;;;15.84;100.00;100326.03;6131552;23;20069;-70
2022/10/24 08:35:18;;;;;;;17.67;3.95;;;;;;;15.98;99.92;100330.50;6133910;23;20005;-71
2022/10/24 08:37:43;;;;;;;18.88;3.88;;;;;;;16.05;100.00;100329.69;6132847;23;20080;-71
2022/10/24 08:40:15;;;;;;;15.57;3.72;;;;;;;16.13;98.65;100319.38;6157732;23;20365;-71
2022/10/24 08:42:41;;;;;;;14.30;3.05;;;;;;;16.01;99.25;100330.06;6132317;23;20033;-71
2022/10/24 08:45:21;;;;;;;15.73;3.80;;;;;;;16.06;99.61;100331.34;6132233;23;20009;-71
2022/10/24 08:47:59;;;;;;;12.40;3.58;;;;;;;16.33;98.19;100327.59;6133457;23;20028;-71
2022/10/24 08:50:29;;;;;;;13.18;3.70;;;;;;;16.36;98.02;100321.69;6159002;23;19997;-71
2022/10/24 08:52:58;;;;;;;16.90;4.20;;;;;;;16.47;97.39;100318.34;6157257;23;20051;-68
2022/10/24 08:55:35;;;;;;;14.25;3.97;;;;;;;16.74;96.55;100323.84;6156417;23;20041;-70
2022/10/24 08:58:50;;;;;;;20.33;4.38;;;;;;;16.59;95.64;100315.00;6188600;23;20027;-69
2022/10/24 09:01:58;;;;;;;20.15;4.05;;;;;;;16.83;94.82;100317.09;6133993;23;20029;-69
2022/10/24 09:04:28;;;;;;;14.55;4.00;;;;;;;16.89;94.82;100316.25;6190709;23;20009;-69
2022/10/24 09:06:54;;;;;;;13.70;3.47;;;;;;;16.69;94.74;100315.38;6191373;23;20067;-69
2022/10/24 09:09:30;;;;;;;20.70;4.57;;;;;;;16.61;95.90;100318.34;6190613;23;20075;-70
2022/10/24 09:12:13;;;;;;;18.85;4.03;;;;;;;16.54;94.48;100327.38;6188527;23;20012;-70
2022/10/24 09:14:46;;;;;;;15.98;3.40;;;;;;;16.60;95.26;100333.06;6185244;23;20005;-71
2022/10/24 09:17:11;;;;;;;14.43;3.75;;;;;;;16.51;95.37;100308.69;6186213;23;20400;-70
2022/10/24 09:19:38;;;;;;;13.52;3.47;;;;;;;16.58;94.93;100313.31;6190298;23;20012;-70
2022/10/24 09:22:06;;;;;;;9.50;2.92;;;;;;;16.66;95.09;100321.28;6191222;23;20004;-70
2022/10/24 09:24:44;;;;;;;19.50;3.20;;;;;;;16.85;94.30;100314.16;6190084;23;20008;-69
2022/10/24 09:27:26;;;;;;;23.10;3.50;;;;;;;17.04;92.89;100307.81;6189509;23;20012;-70
2022/10/24 09:29:52;;;;;;;14.43;3.38;;;;;;;17.21;92.04;100313.63;6187977;23;20425;-69
2022/10/24 09:32:26;;;;;;;40.83;3.75;;;;;;;17.40;91.15;100307.25;6189084;23;20009;-71
2022/10/24 09:34:54;;;;;;;9.20;3.25;;;;;;;17.60;90.94;100313.50;6189821;23;20001;-70
2022/10/24 09:37:42;;;;;;;14.35;3.45;;;;;;;17.79;89.50;100317.19;6189890;23;20009;-71
2022/10/24 09:40:26;;;;;;;16.67;3.78;;;;;;;17.56;90.53;100312.25;6190369;23;20001;-72
2022/10/24 09:42:54;;;;;;;18.35;3.60;;;;;;;17.53;90.22;100301.72;6189338;23;20118;-70
2022/10/24 09:45:38;;;;;;;15.73;4.20;;;;;;;17.62;88.95;100316.00;6190119;23;20005;-71
2022/10/24 09:48:22;;;;;;;16.77;3.47;;;;;;;17.62;89.81;100311.38;6189893;23;20005;-70
2022/10/24 09:50:51;;;;;;;13.15;3.00;;;;;;;17.48;89.23;100314.41;6189650;23;19997;-70
2022/10/24 09:53:27;;;;;;;10.07;2.92;;;;;;;17.44;89.89;100308.50;6189228;23;20005;-70
2022/10/24 09:56:05;;;;;;;11.15;3.45;;;;;;;17.60;89.24;100308.03;6189631;23;20009;-69
2022/10/24 09:58:32;;;;;;;11.45;4.00;;;;;;;17.78;87.66;100320.16;6189877;23;20451;-70
2022/10/24 10:01:02;;;;;;;16.88;4.10;;;;;;;17.89;88.11;100311.25;6189819;23;20005;-70
2022/10/24 10:03:29;;;;;;;15.15;3.25;;;;;;;17.73;88.49;100317.22;6189739;23;20005;-70
2022/10/24 10:05:58;;;;;;;25.35;3.60;;;;;;;17.59;88.70;100306.31;6186817;23;20040;-70
2022/10/24 10:08:28;;;;;;;25.60;3.58;;;;;;;17.77;88.39;100311.09;6189574;23;20402;-70
2022/10/24 10:11:06;;;;;;;20.55;3.50;;;;;;;18.15;86.81;100311.09;6189200;23;20028;-70
2022/10/24 10:13:42;;;;;;;22.23;4.20;;;;;;;18.48;85.19;100304.50;6189020;23;20031;-69
2022/10/24 10:16:29;;;;;;;10.77;3.08;;;;;;;18.53;83.74;100307.41;6188663;23;20008;-70
2022/10/24 10:19:12;;;;;;;10.82;3.20;;;;;;;18.39;83.24;100300.38;6190692;23;20088;-69
2022/10/24 10:21:56;;;;;;;29.73;3.53;;;;;;;18.45;83.49;100304.94;6187644;23;20008;-70
2022/10/24 10:24:34;;;;;;;10.35;3.28;;;;;;;18.48;82.75;100298.19;6188084;23;20001;-69
2022/10/24 10:27:00;;;;;;;13.98;2.75;;;;;;;18.58;83.34;100299.38;6189098;23;20008;-69
2022/10/24 10:29:27;;;;;;;16.23;3.85;;;;;;;18.70;81.19;100292.09;6189711;23;20016;-70
2022/10/24 10:32:10;;;;;;;18.00;3.40;;;;;;;18.64;81.56;100303.91;6189908;23;20372;-69
2022/10/24 10:34:45;;;;;;;14.70;4.50;;;;;;;18.76;81.51;100289.50;6188660;23;20005;-68
2022/10/24 10:37:29;;;;;;;10.88;2.92;;;;;;;18.97;80.76;100302.78;6188034;23;20009;-70
2022/10/24 10:40:16;;;;;;;20.10;3.15;;;;;;;19.04;79.83;100297.22;6190281;23;20001;-70
2022/10/24 10:43:13;;;;;;;13.45;2.53;;;;;;;19.51;78.78;100303.88;6189692;23;20019;-70
2022/10/24 10:45:55;;;;;;;12.05;2.90;;;;;;;19.21;79.05;100298.31;6188679;23;20010;-69
2022/10/24 10:48:48;;;;;;;13.02;2.63;;;;;;;19.33;77.98;100303.88;6188988;23;20035;-69
2022/10/24 10:51:49;;;;;;;8.35;2.58;;;;;;;18.79;78.72;100297.31;6188846;23;20013;-70
2022/10/24 10:54:20;;;;;;;8.90;3.60;;;;;;;18.79;79.04;100298.13;6190624;23;20021;-69
2022/10/24 10:56:54;;;;;;;;;;;;;;;18.67;79.14;100309.00;6157373;23;20010;-78
2022/10/24 10:59:55;;;;;;;11.05;3.00;;;;;;;18.80;79.42;100290.75;6151413;23;19912;-79
2022/10/24 11:02:41;;;;;;;13.00;3.00;;;;;;;18.58;78.75;100309.47;6150638;23;20059;-78
2022/10/24 11:05:32;;;;;;;11.98;2.83;;;;;;;18.66;76.92;100301.84;6121287;23;20045;-78
2022/10/24 11:08:24;;;;;;;17.90;3.10;;;;;;;18.74;77.28;100303.47;6122208;23;20089;-78
2022/10/24 11:10:58;;;;;;;12.23;3.00;;;;;;;18.71;76.87;100298.41;6120751;23;20084;-78
2022/10/24 11:13:35;;;;;;;11.25;3.58;;;;;;;18.79;75.37;100289.91;6130250;23;20013;-78
2022/10/24 11:16:07;;;;;;;9.50;3.15;;;;;;;18.87;76.34;100294.25;6130599;23;20048;-78
2022/10/24 11:18:45;;;;;;;14.93;2.22;;;;;;;18.92;75.84;100305.41;6131221;23;20032;-78
2022/10/24 11:21:13;;;;;;;16.25;2.90;;;;;;;18.97;75.35;100302.78;6131769;23;20336;-78
2022/10/24 11:23:48;;;;;;;14.43;2.50;;;;;;;19.15;75.61;100311.03;6131348;23;20048;-78
2022/10/24 11:26:25;;;;;;;13.15;2.55;;;;;;;19.20;73.97;100302.97;6157375;23;20005;-78